sensor_id;sensor_type;location;lat;lon;timestamp;temperature;humidity
29281;DHT22;25048;49.590;11.026;2022-12-18T00:01:28;-15.00;99.90
29281;DHT22;25048;49.590;11.026;2022-12-18T00:03:59;-15.00;99.90
29281;DHT22;25048;49.590;11.026;2022-12-18T00:06:28;-15.00;99.90
29281;DHT22;25048;49.590;11.026;2022-12-18T00:08:57;-15.00;99.90
29281;DHT22;25048;49.590;11.026;2022-12-18T00:11:27;-15.00;99.90
29281;DHT22;25048;49.590;11.026;2022-12-18T00:13:56;-15.00;99.90
29281;DHT22;25048;49.590;11.026;2022-12-18T00:16:25;-14.80;99.90
29281;DHT22;25048;49.590;11.026;2022-12-18T00:18:55;-14.80;99.90
29281;DHT22;25048;49.590;11.026;2022-12-18T00:21:23;-14.80;99.90
29281;DHT22;25048;49.590;11.026;2022-12-18T00:23:51;-14.80;99.90
29281;DHT22;25048;49.590;11.026;2022-12-18T00:26:27;-14.90;99.90
29281;DHT22;25048;49.590;11.026;2022-12-18T00:29:01;-15.00;99.90
29281;DHT22;25048;49.590;11.026;2022-12-18T00:31:29;-15.10;99.90
29281;DHT22;25048;49.590;11.026;2022-12-18T00:33:57;-15.10;99.90
29281;DHT22;25048;49.590;11.026;2022-12-18T00:36:28;-15.10;99.90
29281;DHT22;25048;49.590;11.026;2022-12-18T00:38:57;-15.20;99.90
29281;DHT22;25048;49.590;11.026;2022-12-18T00:41:25;-15.20;99.90
29281;DHT22;25048;49.590;11.026;2022-12-18T00:44:13;-15.20;99.90
29281;DHT22;25048;49.590;11.026;2022-12-18T00:46:42;-15.20;99.90
29281;DHT22;25048;49.590;11.026;2022-12-18T00:49:13;-15.20;99.90
29281;DHT22;25048;49.590;11.026;2022-12-18T00:51:41;-15.20;99.90
29281;DHT22;25048;49.590;11.026;2022-12-18T00:54:10;-15.30;99.90
29281;DHT22;25048;49.590;11.026;2022-12-18T00:56:38;-15.30;99.90
29281;DHT22;25048;49.590;11.026;2022-12-18T00:59:06;-15.40;99.90
29281;DHT22;25048;49.590;11.026;2022-12-18T01:01:34;-15.40;99.90
29281;DHT22;25048;49.590;11.026;2022-12-18T01:04:03;-15.40;99.90
29281;DHT22;25048;49.590;11.026;2022-12-18T01:06:30;-15.50;99.90
29281;DHT22;25048;49.590;11.026;2022-12-18T01:08:58;-15.50;99.90
29281;DHT22;25048;49.590;11.026;2022-12-18T01:11:27;-15.40;99.90
29281;DHT22;25048;49.590;11.026;2022-12-18T01:13:55;-15.40;99.90
29281;DHT22;25048;49.590;11.026;2022-12-18T01:16:23;-15.30;99.90
29281;DHT22;25048;49.590;11.026;2022-12-18T01:18:54;-15.30;99.90
29281;DHT22;25048;49.590;11.026;2022-12-18T01:21:23;-15.30;99.90
29281;DHT22;25048;49.590;11.026;2022-12-18T01:23:53;-15.40;99.90
29281;DHT22;25048;49.590;11.026;2022-12-18T01:26:21;-15.50;99.90
29281;DHT22;25048;49.590;11.026;2022-12-18T01:28:49;-15.60;99.90
29281;DHT22;25048;49.590;11.026;2022-12-18T01:31:19;-15.70;99.90
29281;DHT22;25048;49.590;11.026;2022-12-18T01:33:51;-15.70;99.90
29281;DHT22;25048;49.590;11.026;2022-12-18T01:36:30;-15.70;99.90
29281;DHT22;25048;49.590;11.026;2022-12-18T01:39:00;-15.70;99.90
29281;DHT22;25048;49.590;11.026;2022-12-18T01:41:29;-15.70;99.90
29281;DHT22;25048;49.590;11.026;2022-12-18T01:49:50;-15.70;99.90
29281;DHT22;25048;49.590;11.026;2022-12-18T01:52:19;-15.60;99.90
29281;DHT22;25048;49.590;11.026;2022-12-18T01:54:49;-15.70;99.90
29281;DHT22;25048;49.590;11.026;2022-12-18T01:57:17;-15.70;99.90
29281;DHT22;25048;49.590;11.026;2022-12-18T01:59:47;-15.70;99.90
29281;DHT22;25048;49.590;11.026;2022-12-18T02:02:17;-15.70;99.90
29281;DHT22;25048;49.590;11.026;2022-12-18T02:04:44;-15.70;99.90
29281;DHT22;25048;49.590;11.026;2022-12-18T02:09:48;-15.80;99.90
29281;DHT22;25048;49.590;11.026;2022-12-18T02:12:19;-15.80;99.90
29281;DHT22;25048;49.590;11.026;2022-12-18T02:14:57;-15.80;99.90
29281;DHT22;25048;49.590;11.026;2022-12-18T02:17:28;-15.80;99.90
29281;DHT22;25048;49.590;11.026;2022-12-18T02:22:59;-15.90;99.90
29281;DHT22;25048;49.590;11.026;2022-12-18T02:26:02;-15.90;99.90
29281;DHT22;25048;49.590;11.026;2022-12-18T02:28:31;-15.90;99.90
29281;DHT22;25048;49.590;11.026;2022-12-18T02:31:00;-15.90;99.90
29281;DHT22;25048;49.590;11.026;2022-12-18T02:33:30;-15.90;99.90
29281;DHT22;25048;49.590;11.026;2022-12-18T02:35:58;-15.90;99.90
29281;DHT22;25048;49.590;11.026;2022-12-18T02:38:29;-15.90;99.90
29281;DHT22;25048;49.590;11.026;2022-12-18T02:41:00;-15.90;99.90
29281;DHT22;25048;49.590;11.026;2022-12-18T02:43:27;-15.80;99.90
29281;DHT22;25048;49.590;11.026;2022-12-18T02:45:58;-15.80;99.90
29281;DHT22;25048;49.590;11.026;2022-12-18T02:48:33;-15.80;99.90
29281;DHT22;25048;49.590;11.026;2022-12-18T02:51:14;-15.80;99.90
29281;DHT22;25048;49.590;11.026;2022-12-18T02:53:51;-15.90;99.90
29281;DHT22;25048;49.590;11.026;2022-12-18T02:56:26;-16.00;99.90
29281;DHT22;25048;49.590;11.026;2022-12-18T02:59:08;-16.00;99.90
29281;DHT22;25048;49.590;11.026;2022-12-18T03:01:43;-15.90;99.90
29281;DHT22;25048;49.590;11.026;2022-12-18T03:04:26;-15.90;99.90
29281;DHT22;25048;49.590;11.026;2022-12-18T03:06:57;-15.90;99.90
29281;DHT22;25048;49.590;11.026;2022-12-18T03:09:36;-15.90;99.90
29281;DHT22;25048;49.590;11.026;2022-12-18T03:12:11;-15.90;99.90
29281;DHT22;25048;49.590;11.026;2022-12-18T03:15:17;-15.90;99.90
29281;DHT22;25048;49.590;11.026;2022-12-18T03:17:26;-15.80;99.90
29281;DHT22;25048;49.590;11.026;2022-12-18T03:19:56;-15.80;99.90
29281;DHT22;25048;49.590;11.026;2022-12-18T03:22:25;-15.80;99.90
29281;DHT22;25048;49.590;11.026;2022-12-18T03:24:54;-15.80;99.90
29281;DHT22;25048;49.590;11.026;2022-12-18T03:27:24;-15.80;99.90
29281;DHT22;25048;49.590;11.026;2022-12-18T03:30:03;-15.80;99.90
29281;DHT22;25048;49.590;11.026;2022-12-18T03:32:35;-15.80;99.90
29281;DHT22;25048;49.590;11.026;2022-12-18T03:35:03;-15.80;99.90
29281;DHT22;25048;49.590;11.026;2022-12-18T03:37:32;-15.80;99.90
29281;DHT22;25048;49.590;11.026;2022-12-18T03:40:01;-15.80;99.90
29281;DHT22;25048;49.590;11.026;2022-12-18T03:42:48;-15.90;99.90
29281;DHT22;25048;49.590;11.026;2022-12-18T03:45:37;-15.90;99.90
29281;DHT22;25048;49.590;11.026;2022-12-18T03:48:01;-16.00;99.90
29281;DHT22;25048;49.590;11.026;2022-12-18T03:50:49;-16.00;99.90
29281;DHT22;25048;49.590;11.026;2022-12-18T03:53:36;-15.90;99.90
29281;DHT22;25048;49.590;11.026;2022-12-18T03:56:03;-15.70;99.90
29281;DHT22;25048;49.590;11.026;2022-12-18T03:58:33;-15.30;99.90
29281;DHT22;25048;49.590;11.026;2022-12-18T04:01:03;-15.00;99.90
29281;DHT22;25048;49.590;11.026;2022-12-18T04:03:33;-14.60;99.90
29281;DHT22;25048;49.590;11.026;2022-12-18T04:06:02;-14.30;99.90
29281;DHT22;25048;49.590;11.026;2022-12-18T04:08:30;-14.00;99.90
29281;DHT22;25048;49.590;11.026;2022-12-18T04:10:59;-13.70;99.90
29281;DHT22;25048;49.590;11.026;2022-12-18T04:13:32;-13.60;99.90
29281;DHT22;25048;49.590;11.026;2022-12-18T04:16:01;-13.40;99.90
29281;DHT22;25048;49.590;11.026;2022-12-18T04:18:28;-13.20;99.90
29281;DHT22;25048;49.590;11.026;2022-12-18T04:20:56;-13.10;99.90
29281;DHT22;25048;49.590;11.026;2022-12-18T04:23:23;-13.00;99.90
29281;DHT22;25048;49.590;11.026;2022-12-18T04:25:51;-12.90;99.90
29281;DHT22;25048;49.590;11.026;2022-12-18T04:28:18;-12.80;99.90
29281;DHT22;25048;49.590;11.026;2022-12-18T04:30:49;-12.70;99.90
29281;DHT22;25048;49.590;11.026;2022-12-18T04:33:19;-12.60;99.90
29281;DHT22;25048;49.590;11.026;2022-12-18T04:35:47;-12.60;99.90
29281;DHT22;25048;49.590;11.026;2022-12-18T04:38:14;-12.50;99.90
29281;DHT22;25048;49.590;11.026;2022-12-18T04:40:42;-12.40;99.90
29281;DHT22;25048;49.590;11.026;2022-12-18T04:43:09;-12.40;99.90
29281;DHT22;25048;49.590;11.026;2022-12-18T04:45:37;-12.30;99.90
29281;DHT22;25048;49.590;11.026;2022-12-18T04:48:05;-12.30;99.90
29281;DHT22;25048;49.590;11.026;2022-12-18T04:50:32;-12.20;99.90
29281;DHT22;25048;49.590;11.026;2022-12-18T04:53:00;-12.10;99.90
29281;DHT22;25048;49.590;11.026;2022-12-18T04:55:27;-12.00;99.90
29281;DHT22;25048;49.590;11.026;2022-12-18T04:57:55;-12.00;99.90
29281;DHT22;25048;49.590;11.026;2022-12-18T05:00:23;-11.90;99.90
29281;DHT22;25048;49.590;11.026;2022-12-18T05:02:50;-11.80;99.90
29281;DHT22;25048;49.590;11.026;2022-12-18T05:05:18;-11.70;99.90
29281;DHT22;25048;49.590;11.026;2022-12-18T05:07:45;-11.60;99.90
29281;DHT22;25048;49.590;11.026;2022-12-18T05:10:13;-11.60;99.90
29281;DHT22;25048;49.590;11.026;2022-12-18T05:12:40;-11.50;99.90
29281;DHT22;25048;49.590;11.026;2022-12-18T05:15:09;-11.40;99.90
29281;DHT22;25048;49.590;11.026;2022-12-18T05:17:37;-11.40;99.90
29281;DHT22;25048;49.590;11.026;2022-12-18T05:20:05;-11.40;99.90
29281;DHT22;25048;49.590;11.026;2022-12-18T05:22:32;-11.40;99.90
29281;DHT22;25048;49.590;11.026;2022-12-18T05:25:00;-11.40;99.90
29281;DHT22;25048;49.590;11.026;2022-12-18T05:27:27;-11.40;99.90
29281;DHT22;25048;49.590;11.026;2022-12-18T05:29:55;-11.30;99.90
29281;DHT22;25048;49.590;11.026;2022-12-18T05:32:22;-11.20;99.90
29281;DHT22;25048;49.590;11.026;2022-12-18T05:34:50;-11.10;99.90
29281;DHT22;25048;49.590;11.026;2022-12-18T05:37:17;-11.00;99.90
29281;DHT22;25048;49.590;11.026;2022-12-18T05:39:45;-10.90;99.90
29281;DHT22;25048;49.590;11.026;2022-12-18T05:42:12;-10.90;99.90
29281;DHT22;25048;49.590;11.026;2022-12-18T05:44:40;-10.80;99.90
29281;DHT22;25048;49.590;11.026;2022-12-18T05:47:07;-10.70;99.90
29281;DHT22;25048;49.590;11.026;2022-12-18T05:49:35;-10.50;99.90
29281;DHT22;25048;49.590;11.026;2022-12-18T05:52:02;-10.40;99.90
29281;DHT22;25048;49.590;11.026;2022-12-18T05:54:30;-10.30;99.90
29281;DHT22;25048;49.590;11.026;2022-12-18T05:56:58;-10.20;99.90
29281;DHT22;25048;49.590;11.026;2022-12-18T05:59:25;-10.20;99.90
29281;DHT22;25048;49.590;11.026;2022-12-18T06:01:53;-10.20;99.90
29281;DHT22;25048;49.590;11.026;2022-12-18T06:04:20;-10.00;99.90
29281;DHT22;25048;49.590;11.026;2022-12-18T06:06:48;-10.00;99.90
29281;DHT22;25048;49.590;11.026;2022-12-18T06:09:15;-9.90;99.90
29281;DHT22;25048;49.590;11.026;2022-12-18T06:11:43;-9.90;99.90
29281;DHT22;25048;49.590;11.026;2022-12-18T06:14:10;-9.80;99.90
29281;DHT22;25048;49.590;11.026;2022-12-18T06:16:38;-9.70;99.90
29281;DHT22;25048;49.590;11.026;2022-12-18T06:19:06;-9.60;99.90
29281;DHT22;25048;49.590;11.026;2022-12-18T06:21:34;-9.50;99.90
29281;DHT22;25048;49.590;11.026;2022-12-18T06:24:01;-9.50;99.90
29281;DHT22;25048;49.590;11.026;2022-12-18T06:26:29;-9.40;99.90
29281;DHT22;25048;49.590;11.026;2022-12-18T06:28:56;-9.30;99.90
29281;DHT22;25048;49.590;11.026;2022-12-18T06:31:24;-9.20;99.90
29281;DHT22;25048;49.590;11.026;2022-12-18T06:33:51;-9.10;99.90
29281;DHT22;25048;49.590;11.026;2022-12-18T06:36:19;-9.10;99.90
29281;DHT22;25048;49.590;11.026;2022-12-18T06:38:47;-9.10;99.90
29281;DHT22;25048;49.590;11.026;2022-12-18T06:41:20;-9.00;99.90
29281;DHT22;25048;49.590;11.026;2022-12-18T06:43:48;-9.00;99.90
29281;DHT22;25048;49.590;11.026;2022-12-18T06:46:15;-8.90;99.90
29281;DHT22;25048;49.590;11.026;2022-12-18T06:48:46;-8.80;99.90
29281;DHT22;25048;49.590;11.026;2022-12-18T06:51:12;-8.70;99.90
29281;DHT22;25048;49.590;11.026;2022-12-18T06:53:41;-8.70;99.90
29281;DHT22;25048;49.590;11.026;2022-12-18T06:56:08;-8.70;99.90
29281;DHT22;25048;49.590;11.026;2022-12-18T06:58:36;-8.70;99.90
29281;DHT22;25048;49.590;11.026;2022-12-18T07:01:06;-8.60;99.90
29281;DHT22;25048;49.590;11.026;2022-12-18T07:03:34;-8.50;99.90
29281;DHT22;25048;49.590;11.026;2022-12-18T07:06:02;-8.50;99.90
29281;DHT22;25048;49.590;11.026;2022-12-18T07:08:30;-8.40;99.90
29281;DHT22;25048;49.590;11.026;2022-12-18T07:10:58;-8.40;99.90
29281;DHT22;25048;49.590;11.026;2022-12-18T07:13:25;-8.40;99.90
29281;DHT22;25048;49.590;11.026;2022-12-18T07:15:53;-8.30;99.90
29281;DHT22;25048;49.590;11.026;2022-12-18T07:18:20;-8.20;99.90
29281;DHT22;25048;49.590;11.026;2022-12-18T07:20:48;-8.20;99.90
29281;DHT22;25048;49.590;11.026;2022-12-18T07:23:15;-8.10;99.90
29281;DHT22;25048;49.590;11.026;2022-12-18T07:25:43;-8.10;99.90
29281;DHT22;25048;49.590;11.026;2022-12-18T07:28:10;-8.00;99.90
29281;DHT22;25048;49.590;11.026;2022-12-18T07:30:38;-7.90;99.90
29281;DHT22;25048;49.590;11.026;2022-12-18T07:33:06;-7.90;99.90
29281;DHT22;25048;49.590;11.026;2022-12-18T07:35:36;-7.90;99.90
29281;DHT22;25048;49.590;11.026;2022-12-18T07:38:04;-7.80;99.90
29281;DHT22;25048;49.590;11.026;2022-12-18T07:40:32;-7.80;99.90
29281;DHT22;25048;49.590;11.026;2022-12-18T07:42:59;-7.70;99.90
29281;DHT22;25048;49.590;11.026;2022-12-18T07:45:30;-7.60;99.90
29281;DHT22;25048;49.590;11.026;2022-12-18T07:47:56;-7.50;99.90
29281;DHT22;25048;49.590;11.026;2022-12-18T07:50:23;-7.40;99.90
29281;DHT22;25048;49.590;11.026;2022-12-18T07:52:51;-7.40;99.90
29281;DHT22;25048;49.590;11.026;2022-12-18T07:55:18;-7.30;99.90
29281;DHT22;25048;49.590;11.026;2022-12-18T07:57:46;-7.20;99.90
29281;DHT22;25048;49.590;11.026;2022-12-18T08:00:14;-7.10;99.90
29281;DHT22;25048;49.590;11.026;2022-12-18T08:02:42;-7.00;99.90
29281;DHT22;25048;49.590;11.026;2022-12-18T08:05:10;-7.00;99.90
29281;DHT22;25048;49.590;11.026;2022-12-18T08:07:37;-6.90;99.90
29281;DHT22;25048;49.590;11.026;2022-12-18T08:10:05;-6.70;99.90
29281;DHT22;25048;49.590;11.026;2022-12-18T08:12:33;-6.60;99.90
29281;DHT22;25048;49.590;11.026;2022-12-18T08:15:01;-6.50;99.90
29281;DHT22;25048;49.590;11.026;2022-12-18T08:17:28;-6.40;99.90
29281;DHT22;25048;49.590;11.026;2022-12-18T08:19:56;-6.30;99.90
29281;DHT22;25048;49.590;11.026;2022-12-18T08:22:23;-6.20;99.90
29281;DHT22;25048;49.590;11.026;2022-12-18T08:24:51;-6.00;99.90
29281;DHT22;25048;49.590;11.026;2022-12-18T08:27:18;-6.00;99.90
29281;DHT22;25048;49.590;11.026;2022-12-18T08:29:46;-5.90;99.90
29281;DHT22;25048;49.590;11.026;2022-12-18T08:32:13;-5.80;99.90
29281;DHT22;25048;49.590;11.026;2022-12-18T08:34:41;-5.70;99.90
29281;DHT22;25048;49.590;11.026;2022-12-18T08:37:08;-5.70;99.90
29281;DHT22;25048;49.590;11.026;2022-12-18T08:39:36;-5.70;99.90
29281;DHT22;25048;49.590;11.026;2022-12-18T08:42:04;-5.60;99.90
29281;DHT22;25048;49.590;11.026;2022-12-18T08:44:49;-5.50;99.90
29281;DHT22;25048;49.590;11.026;2022-12-18T08:47:16;-5.40;99.90
29281;DHT22;25048;49.590;11.026;2022-12-18T08:49:44;-5.30;99.90
29281;DHT22;25048;49.590;11.026;2022-12-18T08:52:16;-5.20;99.90
29281;DHT22;25048;49.590;11.026;2022-12-18T08:54:43;-5.10;99.90
29281;DHT22;25048;49.590;11.026;2022-12-18T08:57:11;-5.00;99.90
29281;DHT22;25048;49.590;11.026;2022-12-18T08:59:38;-5.00;99.90
29281;DHT22;25048;49.590;11.026;2022-12-18T09:02:06;-4.80;99.90
29281;DHT22;25048;49.590;11.026;2022-12-18T09:04:33;-4.80;99.90
29281;DHT22;25048;49.590;11.026;2022-12-18T09:07:01;-4.70;99.90
29281;DHT22;25048;49.590;11.026;2022-12-18T09:09:28;-4.60;99.90
29281;DHT22;25048;49.590;11.026;2022-12-18T09:11:56;-4.50;99.90
29281;DHT22;25048;49.590;11.026;2022-12-18T09:14:23;-4.50;99.90
29281;DHT22;25048;49.590;11.026;2022-12-18T09:16:51;-4.40;99.90
29281;DHT22;25048;49.590;11.026;2022-12-18T09:19:18;-4.30;99.90
29281;DHT22;25048;49.590;11.026;2022-12-18T09:21:46;-4.30;99.90
29281;DHT22;25048;49.590;11.026;2022-12-18T09:24:14;-4.10;99.90
29281;DHT22;25048;49.590;11.026;2022-12-18T09:26:42;-4.00;99.90
29281;DHT22;25048;49.590;11.026;2022-12-18T09:29:10;-4.00;99.90
29281;DHT22;25048;49.590;11.026;2022-12-18T09:31:38;-3.80;99.90
29281;DHT22;25048;49.590;11.026;2022-12-18T09:34:06;-3.70;99.90
29281;DHT22;25048;49.590;11.026;2022-12-18T09:36:34;-3.60;99.90
29281;DHT22;25048;49.590;11.026;2022-12-18T09:39:02;-3.60;99.90
29281;DHT22;25048;49.590;11.026;2022-12-18T09:41:57;-3.40;99.90
29281;DHT22;25048;49.590;11.026;2022-12-18T09:44:35;-3.30;99.90
29281;DHT22;25048;49.590;11.026;2022-12-18T09:50:00;-3.10;99.90
29281;DHT22;25048;49.590;11.026;2022-12-18T09:52:46;-2.90;99.90
29281;DHT22;25048;49.590;11.026;2022-12-18T09:57:49;-2.50;99.90
29281;DHT22;25048;49.590;11.026;2022-12-18T10:00:20;-2.40;99.90
29281;DHT22;25048;49.590;11.026;2022-12-18T10:02:48;-2.40;99.90
29281;DHT22;25048;49.590;11.026;2022-12-18T10:05:40;-2.30;99.90
29281;DHT22;25048;49.590;11.026;2022-12-18T10:08:10;-2.20;99.90
29281;DHT22;25048;49.590;11.026;2022-12-18T10:10:53;-2.10;99.90
29281;DHT22;25048;49.590;11.026;2022-12-18T10:13:42;-2.00;99.90
29281;DHT22;25048;49.590;11.026;2022-12-18T10:16:24;-2.10;99.90
29281;DHT22;25048;49.590;11.026;2022-12-18T10:19:08;-2.10;99.90
29281;DHT22;25048;49.590;11.026;2022-12-18T10:21:38;-2.20;99.90
29281;DHT22;25048;49.590;11.026;2022-12-18T10:26:34;-2.30;99.90
29281;DHT22;25048;49.590;11.026;2022-12-18T10:29:08;-2.40;99.90
29281;DHT22;25048;49.590;11.026;2022-12-18T10:31:32;-2.50;99.90
29281;DHT22;25048;49.590;11.026;2022-12-18T10:34:00;-2.50;99.90
29281;DHT22;25048;49.590;11.026;2022-12-18T10:36:27;-2.30;99.90
29281;DHT22;25048;49.590;11.026;2022-12-18T10:41:43;-2.10;99.90
29281;DHT22;25048;49.590;11.026;2022-12-18T10:44:16;-1.80;99.90
29281;DHT22;25048;49.590;11.026;2022-12-18T10:46:43;-1.70;99.90
29281;DHT22;25048;49.590;11.026;2022-12-18T10:49:29;-1.60;99.90
29281;DHT22;25048;49.590;11.026;2022-12-18T10:52:11;-1.50;99.90
29281;DHT22;25048;49.590;11.026;2022-12-18T10:54:36;-1.30;99.90
29281;DHT22;25048;49.590;11.026;2022-12-18T10:57:16;-1.10;99.90
29281;DHT22;25048;49.590;11.026;2022-12-18T10:59:55;-0.80;99.90
29281;DHT22;25048;49.590;11.026;2022-12-18T11:02:37;-0.50;99.90
29281;DHT22;25048;49.590;11.026;2022-12-18T11:05:32;-0.30;99.90
29281;DHT22;25048;49.590;11.026;2022-12-18T11:08:01;-0.20;99.90
29281;DHT22;25048;49.590;11.026;2022-12-18T11:10:38;-0.10;99.90
29281;DHT22;25048;49.590;11.026;2022-12-18T11:13:21;0.10;99.90
29281;DHT22;25048;49.590;11.026;2022-12-18T11:15:40;-0.10;99.90
29281;DHT22;25048;49.590;11.026;2022-12-18T11:18:26;-0.30;99.90
29281;DHT22;25048;49.590;11.026;2022-12-18T11:21:05;-0.50;99.90
29281;DHT22;25048;49.590;11.026;2022-12-18T11:23:26;-0.80;99.90
29281;DHT22;25048;49.590;11.026;2022-12-18T11:26:02;-0.90;99.90
29281;DHT22;25048;49.590;11.026;2022-12-18T11:28:40;-0.90;99.90
29281;DHT22;25048;49.590;11.026;2022-12-18T11:31:26;-0.80;99.90
29281;DHT22;25048;49.590;11.026;2022-12-18T11:34:20;-0.80;99.90
29281;DHT22;25048;49.590;11.026;2022-12-18T11:36:47;-0.70;99.90
29281;DHT22;25048;49.590;11.026;2022-12-18T11:39:24;-0.50;99.90
29281;DHT22;25048;49.590;11.026;2022-12-18T11:41:57;-0.50;99.90
29281;DHT22;25048;49.590;11.026;2022-12-18T11:44:55;-0.40;99.90
29281;DHT22;25048;49.590;11.026;2022-12-18T11:47:57;-0.30;99.90
29281;DHT22;25048;49.590;11.026;2022-12-18T11:53:08;-0.20;99.90
29281;DHT22;25048;49.590;11.026;2022-12-18T12:09:52;-0.50;99.90
29281;DHT22;25048;49.590;11.026;2022-12-18T12:12:35;-0.60;99.90
29281;DHT22;25048;49.590;11.026;2022-12-18T12:17:45;-0.80;99.90
29281;DHT22;25048;49.590;11.026;2022-12-18T12:20:34;-0.80;99.90
29281;DHT22;25048;49.590;11.026;2022-12-18T12:23:05;-0.70;99.90
29281;DHT22;25048;49.590;11.026;2022-12-18T12:28:38;-0.50;99.90
29281;DHT22;25048;49.590;11.026;2022-12-18T12:39:22;-0.40;99.90
29281;DHT22;25048;49.590;11.026;2022-12-18T12:41:49;-0.30;99.90
29281;DHT22;25048;49.590;11.026;2022-12-18T12:44:41;-0.20;99.90
29281;DHT22;25048;49.590;11.026;2022-12-18T12:47:17;-0.20;99.90
29281;DHT22;25048;49.590;11.026;2022-12-18T12:49:45;-0.10;99.90
29281;DHT22;25048;49.590;11.026;2022-12-18T12:52:33;0.00;99.90
29281;DHT22;25048;49.590;11.026;2022-12-18T12:55:03;0.10;99.90
29281;DHT22;25048;49.590;11.026;2022-12-18T12:57:37;0.20;99.90
29281;DHT22;25048;49.590;11.026;2022-12-18T13:00:10;0.30;99.90
29281;DHT22;25048;49.590;11.026;2022-12-18T13:05:23;0.40;99.90
29281;DHT22;25048;49.590;11.026;2022-12-18T13:08:08;0.30;99.90
29281;DHT22;25048;49.590;11.026;2022-12-18T13:10:40;0.20;99.90
29281;DHT22;25048;49.590;11.026;2022-12-18T13:13:10;0.20;99.90
29281;DHT22;25048;49.590;11.026;2022-12-18T13:15:43;0.20;99.90
29281;DHT22;25048;49.590;11.026;2022-12-18T13:18:22;0.10;99.90
29281;DHT22;25048;49.590;11.026;2022-12-18T13:23:26;0.00;99.90
29281;DHT22;25048;49.590;11.026;2022-12-18T13:36:48;0.00;99.90
29281;DHT22;25048;49.590;11.026;2022-12-18T13:39:21;0.00;99.90
29281;DHT22;25048;49.590;11.026;2022-12-18T13:41:51;-0.10;99.90
29281;DHT22;25048;49.590;11.026;2022-12-18T13:44:41;-0.20;99.90
29281;DHT22;25048;49.590;11.026;2022-12-18T13:49:55;-0.10;99.90
29281;DHT22;25048;49.590;11.026;2022-12-18T13:52:28;-0.10;99.90
29281;DHT22;25048;49.590;11.026;2022-12-18T13:54:58;-0.10;99.90
29281;DHT22;25048;49.590;11.026;2022-12-18T13:57:31;-0.20;99.90
29281;DHT22;25048;49.590;11.026;2022-12-18T14:00:23;-0.40;99.90
29281;DHT22;25048;49.590;11.026;2022-12-18T14:02:46;-0.50;99.90
29281;DHT22;25048;49.590;11.026;2022-12-18T14:05:31;-0.50;99.90
29281;DHT22;25048;49.590;11.026;2022-12-18T14:08:10;-0.60;99.90
29281;DHT22;25048;49.590;11.026;2022-12-18T14:10:29;-0.70;99.90
29281;DHT22;25048;49.590;11.026;2022-12-18T14:13:03;-0.80;99.90
29281;DHT22;25048;49.590;11.026;2022-12-18T14:15:33;-0.90;99.90
29281;DHT22;25048;49.590;11.026;2022-12-18T14:18:23;-1.00;99.90
29281;DHT22;25048;49.590;11.026;2022-12-18T14:20:52;-1.10;99.90
29281;DHT22;25048;49.590;11.026;2022-12-18T14:23:41;-1.20;99.90
29281;DHT22;25048;49.590;11.026;2022-12-18T14:26:24;-1.20;99.90
29281;DHT22;25048;49.590;11.026;2022-12-18T14:28:54;-1.30;99.90
29281;DHT22;25048;49.590;11.026;2022-12-18T14:31:25;-1.40;99.90
29281;DHT22;25048;49.590;11.026;2022-12-18T14:33:53;-1.50;99.90
29281;DHT22;25048;49.590;11.026;2022-12-18T14:36:24;-1.60;99.90
29281;DHT22;25048;49.590;11.026;2022-12-18T14:38:54;-1.60;99.90
29281;DHT22;25048;49.590;11.026;2022-12-18T14:41:23;-1.80;99.90
29281;DHT22;25048;49.590;11.026;2022-12-18T14:43:52;-1.90;99.90
29281;DHT22;25048;49.590;11.026;2022-12-18T14:46:35;-2.10;99.90
29281;DHT22;25048;49.590;11.026;2022-12-18T14:49:21;-2.20;99.90
29281;DHT22;25048;49.590;11.026;2022-12-18T14:51:57;-2.40;99.90
29281;DHT22;25048;49.590;11.026;2022-12-18T14:54:25;-2.50;99.90
29281;DHT22;25048;49.590;11.026;2022-12-18T14:57:24;-2.70;99.90
29281;DHT22;25048;49.590;11.026;2022-12-18T14:59:48;-2.80;99.90
29281;DHT22;25048;49.590;11.026;2022-12-18T15:02:26;-3.00;99.90
29281;DHT22;25048;49.590;11.026;2022-12-18T15:05:05;-3.10;99.90
29281;DHT22;25048;49.590;11.026;2022-12-18T15:07:49;-3.20;99.90
29281;DHT22;25048;49.590;11.026;2022-12-18T15:10:22;-3.30;99.90
29281;DHT22;25048;49.590;11.026;2022-12-18T15:20:53;-3.70;99.90
29281;DHT22;25048;49.590;11.026;2022-12-18T15:23:26;-3.90;99.90
29281;DHT22;25048;49.590;11.026;2022-12-18T15:33:59;-4.30;99.90
29281;DHT22;25048;49.590;11.026;2022-12-18T15:36:15;-4.30;99.90
29281;DHT22;25048;49.590;11.026;2022-12-18T15:38:53;-4.40;99.90
29281;DHT22;25048;49.590;11.026;2022-12-18T15:41:22;-4.50;99.90
29281;DHT22;25048;49.590;11.026;2022-12-18T15:43:51;-4.50;99.90
29281;DHT22;25048;49.590;11.026;2022-12-18T15:46:24;-4.50;99.90
29281;DHT22;25048;49.590;11.026;2022-12-18T15:48:56;-4.60;99.90
29281;DHT22;25048;49.590;11.026;2022-12-18T15:51:27;-4.60;99.90
29281;DHT22;25048;49.590;11.026;2022-12-18T15:53:56;-4.60;99.90
29281;DHT22;25048;49.590;11.026;2022-12-18T15:56:25;-4.60;99.90
29281;DHT22;25048;49.590;11.026;2022-12-18T15:59:18;-4.60;99.90
29281;DHT22;25048;49.590;11.026;2022-12-18T16:01:43;-4.60;99.90
29281;DHT22;25048;49.590;11.026;2022-12-18T16:04:13;-4.60;99.90
29281;DHT22;25048;49.590;11.026;2022-12-18T16:06:42;-4.60;99.90
29281;DHT22;25048;49.590;11.026;2022-12-18T16:09:09;-4.70;99.90
29281;DHT22;25048;49.590;11.026;2022-12-18T16:11:39;-4.80;99.90
29281;DHT22;25048;49.590;11.026;2022-12-18T16:14:21;-4.90;99.90
29281;DHT22;25048;49.590;11.026;2022-12-18T16:16:38;-4.90;99.90
29281;DHT22;25048;49.590;11.026;2022-12-18T16:19:06;-5.00;99.90
29281;DHT22;25048;49.590;11.026;2022-12-18T16:21:34;-5.10;99.90
29281;DHT22;25048;49.590;11.026;2022-12-18T16:24:02;-5.10;99.90
29281;DHT22;25048;49.590;11.026;2022-12-18T16:26:32;-5.20;99.90
29281;DHT22;25048;49.590;11.026;2022-12-18T16:29:00;-5.30;99.90
29281;DHT22;25048;49.590;11.026;2022-12-18T16:31:27;-5.30;99.90
29281;DHT22;25048;49.590;11.026;2022-12-18T16:36:42;-5.40;99.90
29281;DHT22;25048;49.590;11.026;2022-12-18T16:39:10;-5.40;99.90
29281;DHT22;25048;49.590;11.026;2022-12-18T16:41:37;-5.50;99.90
29281;DHT22;25048;49.590;11.026;2022-12-18T16:44:05;-5.50;99.90
29281;DHT22;25048;49.590;11.026;2022-12-18T16:46:32;-5.50;99.90
29281;DHT22;25048;49.590;11.026;2022-12-18T16:49:00;-5.60;99.90
29281;DHT22;25048;49.590;11.026;2022-12-18T16:51:28;-5.70;99.90
29281;DHT22;25048;49.590;11.026;2022-12-18T16:53:56;-5.70;99.90
29281;DHT22;25048;49.590;11.026;2022-12-18T16:56:24;-5.70;99.90
29281;DHT22;25048;49.590;11.026;2022-12-18T16:58:53;-5.70;99.90
29281;DHT22;25048;49.590;11.026;2022-12-18T17:01:22;-5.70;99.90
29281;DHT22;25048;49.590;11.026;2022-12-18T17:04:01;-5.70;99.90
29281;DHT22;25048;49.590;11.026;2022-12-18T17:06:38;-5.70;99.90